Terminal Aerodrome Forecast
Issued by NWS

Home | Current Version | Previous Version | Text Only | Print | Product List | Glossary Off
Versions: 1 2 3 4 5 6 7 8 9 10 11 12 13 14 15

000
FTUS43 KICT 211120
TAFCNU
TAF
KCNU 211120Z 2112/2212 10007KT P6SM SHRA OVC090
     FM211600 09008KT 6SM -SHRA OVC025
     FM220300 02008KT 6SM -SHRA OVC008=

USA.gov is the U.S. government's official web portal to all federal, state and local government web resources and services.